Time;durP1;ratioP1;P1;durP2;ratioP2;P2;SDS_P1;SDS_P2;PMS_P1;PMS_P2;Temp;Humidity;BMP_temperature;BMP_pressure;BME280_temperature;BME280_humidity;BME280_pressure;Samples;Min_cycle;Max_cycle;Signal;HPM_P1;HPM_P2
2021/03/18 00:02:01;;;;;;;;;;;;;;;6.70;74.23;102419.63;5074978;28;19927;-64
2021/03/18 00:04:28;;;;;;;;;;;;;;;6.76;74.33;102421.41;5092464;28;19927;-65
2021/03/18 00:06:58;;;;;;;;;;;;;;;6.85;73.62;102417.19;5092864;28;19920;-65
2021/03/18 00:09:25;;;;;;;;;;;;;;;6.47;74.97;102420.56;5092979;28;19927;-68
2021/03/18 00:11:55;;;;;;;;;;;;;;;6.63;73.77;102418.94;5093162;28;19927;-71
2021/03/18 00:14:23;;;;;;;;;;;;;;;6.69;73.76;102427.00;5090613;28;20294;-75
2021/03/18 00:16:49;;;;;;;;;;;;;;;6.75;73.24;102434.25;5094057;28;19927;-73
2021/03/18 00:19:17;;;;;;;;;;;;;;;6.74;73.34;102427.13;5093226;28;19920;-71
2021/03/18 00:21:46;;;;;;;;;;;;;;;6.67;73.09;102431.91;5076094;28;19920;-73
2021/03/18 00:24:14;;;;;;;;;;;;;;;6.68;73.56;102428.09;5076205;28;20084;-69
2021/03/18 00:26:40;;;;;;;;;;;;;;;6.71;73.59;102422.13;5093610;28;19924;-70
2021/03/18 00:29:07;;;;;;;;;;;;;;;6.88;73.39;102440.50;5059106;28;20339;-74
2021/03/18 00:31:52;;;;;;;;;;;;;;;6.71;72.88;102427.59;5093386;28;19920;-66
2021/03/18 00:34:19;;;;;;;;;;;;;;;6.63;73.49;102425.25;5093146;28;19920;-71
2021/03/18 00:36:46;;;;;;;;;;;;;;;6.64;72.46;102421.44;5093246;28;19920;-77
2021/03/18 00:39:15;;;;;;;;;;;;;;;6.41;73.61;102407.03;5093214;28;19927;-71
2021/03/18 00:41:41;;;;;;;;;;;;;;;6.62;72.70;102406.34;5093387;28;19924;-73
2021/03/18 00:44:08;;;;;;;;;;;;;;;6.58;72.68;102410.66;5075472;28;19927;-70
2021/03/18 00:50:56;;;;;;;;;;;;;;;6.34;73.45;102403.63;5074655;28;19939;-67
2021/03/18 00:53:30;;;;;;;;;;;;;;;6.40;73.36;102395.25;5075331;28;19943;-66
2021/03/18 00:55:57;;;;;;;;;;;;;;;6.41;73.28;102409.78;5078379;28;20374;-63
2021/03/18 00:58:24;;;;;;;;;;;;;;;6.40;73.35;102394.41;5079333;28;20382;-66
2021/03/18 01:00:53;;;;;;;;;;;;;;;6.57;73.30;102403.53;5078589;28;20259;-68
2021/03/18 01:03:22;;;;;;;;;;;;;;;6.67;72.59;102399.06;5062523;28;19920;-67
2021/03/18 01:05:53;;;;;;;;;;;;;;;6.80;71.76;102397.88;5062946;28;19924;-71
2021/03/18 01:08:22;;;;;;;;;;;;;;;6.49;72.66;102404.75;5080711;28;20301;-66
2021/03/18 01:11:00;;;;;;;;;;;;;;;6.44;73.58;102403.81;5097460;28;19920;-68
2021/03/18 01:13:28;;;;;;;;;;;;;;;6.57;72.71;102396.13;5098570;28;19920;-66
2021/03/18 01:16:04;;;;;;;;;;;;;;;6.59;72.42;102388.50;5062987;28;19920;-71
2021/03/18 01:18:57;;;;;;;;;;;;;;;6.43;71.91;102378.34;5081083;28;19934;-70
2021/03/18 01:21:26;;;;;;;;;;;;;;;6.17;73.07;102395.34;5093538;28;20377;-69
2021/03/18 01:23:52;;;;;;;;;;;;;;;6.15;72.80;102383.84;5096003;28;20381;-66
2021/03/18 01:26:19;;;;;;;;;;;;;;;6.07;73.20;102380.63;5095949;28;19925;-66
2021/03/18 01:28:46;;;;;;;;;;;;;;;6.09;74.19;102384.81;5096329;28;19927;-68
2021/03/18 01:31:13;;;;;;;;;;;;;;;6.10;73.15;102380.97;5096562;28;19919;-69
2021/03/18 01:33:41;;;;;;;;;;;;;;;6.27;72.93;102378.31;5076945;28;19928;-69
2021/03/18 01:36:11;;;;;;;;;;;;;;;6.35;72.47;102373.28;5111706;28;19927;-67
2021/03/18 01:38:38;;;;;;;;;;;;;;;6.37;71.88;102393.03;5076918;28;19990;-65
2021/03/18 01:41:05;;;;;;;;;;;;;;;6.28;72.03;102380.78;5077409;28;19927;-72
2021/03/18 01:43:32;;;;;;;;;;;;;;;6.17;72.60;102369.91;5095450;28;19927;-68
2021/03/18 01:45:59;;;;;;;;;;;;;;;6.31;72.48;102380.31;5095423;28;19927;-69
2021/03/18 01:48:27;;;;;;;;;;;;;;;6.13;72.74;102379.69;5095862;28;20263;-65
2021/03/18 01:50:53;;;;;;;;;;;;;;;6.31;72.50;102357.59;5078811;28;19927;-66
2021/03/18 01:53:21;;;;;;;;;;;;;;;6.37;72.43;102356.59;5078362;28;19924;-70
2021/03/18 01:55:49;;;;;;;;;;;;;;;6.48;72.35;102350.25;5061210;28;19920;-68
2021/03/18 01:58:15;;;;;;;;;;;;;;;6.65;71.14;102346.44;5077279;28;19943;-67
2021/03/18 02:00:43;;;;;;;;;;;;;;;6.67;70.78;102346.19;5077511;28;19920;-67
2021/03/18 02:03:11;;;;;;;;;;;;;;;6.31;71.53;102347.47;5095206;28;19931;-70
2021/03/18 02:05:38;;;;;;;;;;;;;;;6.45;71.29;102361.69;5077566;28;19920;-65
2021/03/18 02:08:05;;;;;;;;;;;;;;;6.32;71.12;102354.63;5079817;28;20315;-71
2021/03/18 02:10:33;;;;;;;;;;;;;;;6.27;70.72;102343.56;5097899;28;20262;-65
2021/03/18 02:13:01;;;;;;;;;;;;;;;6.17;71.46;102345.28;5097847;28;19924;-67
2021/03/18 02:15:29;;;;;;;;;;;;;;;5.99;72.52;102356.41;5078554;28;19920;-67
2021/03/18 02:17:56;;;;;;;;;;;;;;;5.76;72.99;102335.41;5061391;28;20362;-66
2021/03/18 02:20:45;;;;;;;;;;;;;;;6.19;72.91;102332.19;5094697;28;19927;-67
2021/03/18 02:23:36;;;;;;;;;;;;;;;6.40;71.57;102348.72;5077162;28;19931;-66
2021/03/18 02:26:09;;;;;;;;;;;;;;;6.23;70.68;102356.09;5076717;28;20270;-66
2021/03/18 02:29:11;;;;;;;;;;;;;;;5.92;71.93;102358.47;5094729;28;19927;-66
2021/03/18 02:31:37;;;;;;;;;;;;;;;6.03;71.04;102343.91;5032593;28;19928;-65
2021/03/18 02:34:23;;;;;;;;;;;;;;;5.90;71.88;102336.81;5033368;28;19921;-66
2021/03/18 02:36:53;;;;;;;;;;;;;;;5.98;71.96;102336.44;5032527;28;20387;-64
2021/03/18 02:39:22;;;;;;;;;;;;;;;5.93;72.26;102336.34;4999359;28;20273;-66
2021/03/18 02:41:50;;;;;;;;;;;;;;;5.65;73.82;102325.31;5032335;28;19921;-66
2021/03/18 02:44:19;;;;;;;;;;;;;;;5.72;73.76;102342.44;5032542;28;19928;-64
2021/03/18 02:46:48;;;;;;;;;;;;;;;5.67;74.22;102347.78;5000053;28;20391;-65
2021/03/18 02:49:15;;;;;;;;;;;;;;;5.72;74.49;102336.97;4999733;28;19946;-66
2021/03/18 02:51:42;;;;;;;;;;;;;;;5.88;74.15;102336.22;4999810;28;19921;-65
2021/03/18 02:54:10;;;;;;;;;;;;;;;5.81;74.14;102331.94;5032489;28;19928;-66
2021/03/18 02:56:39;;;;;;;;;;;;;;;5.85;73.85;102333.16;5015518;28;19928;-67
2021/03/18 02:59:06;;;;;;;;;;;;;;;5.73;74.63;102331.28;5032418;28;19928;-67
2021/03/18 03:01:33;;;;;;;;;;;;;;;5.63;75.00;102331.03;5031372;28;19928;-65
2021/03/18 03:04:00;;;;;;;;;;;;;;;5.77;74.92;102337.06;5016004;28;19921;-64
2021/03/18 03:06:27;;;;;;;;;;;;;;;5.66;75.01;102324.28;5082081;28;19920;-67
2021/03/18 03:08:54;;;;;;;;;;;;;;;5.70;75.19;102331.72;5075986;28;20000;-63
2021/03/18 03:11:23;;;;;;;;;;;;;;;5.71;75.41;102316.19;5076483;28;19947;-67
2021/03/18 03:13:49;;;;;;;;;;;;;;;5.64;75.94;102319.06;5076394;28;20278;-65
2021/03/18 03:16:17;;;;;;;;;;;;;;;5.79;75.00;102325.91;5093977;28;20293;-63
2021/03/18 03:18:44;;;;;;;;;;;;;;;5.43;76.48;102336.09;5093726;28;19920;-67
2021/03/18 03:21:12;;;;;;;;;;;;;;;5.35;76.63;102327.44;5076012;28;19920;-67
2021/03/18 03:23:39;;;;;;;;;;;;;;;5.22;77.39;102341.31;5076430;28;19920;-63
2021/03/18 03:26:05;;;;;;;;;;;;;;;5.23;77.45;102343.81;5094747;28;20358;-65
2021/03/18 03:28:32;;;;;;;;;;;;;;;5.32;77.18;102339.66;5090723;28;19957;-65
2021/03/18 03:30:59;;;;;;;;;;;;;;;5.52;76.59;102331.06;5076136;28;20317;-68
2021/03/18 03:33:27;;;;;;;;;;;;;;;5.66;75.71;102340.66;5093956;28;19927;-65
2021/03/18 03:35:54;;;;;;;;;;;;;;;5.50;76.54;102342.25;5075592;28;19920;-65
2021/03/18 03:38:21;;;;;;;;;;;;;;;5.50;76.42;102338.69;5094276;28;19927;-65
2021/03/18 03:40:47;;;;;;;;;;;;;;;5.35;76.75;102344.63;5075797;28;20393;-67
2021/03/18 03:43:17;;;;;;;;;;;;;;;5.35;76.59;102339.16;5093426;28;19927;-65
2021/03/18 03:45:44;;;;;;;;;;;;;;;5.64;76.11;102348.28;5074868;28;20366;-72
2021/03/18 03:52:29;;;;;;;;;;;;;;;5.89;75.37;102346.13;5093240;28;19923;-65
2021/03/18 03:54:57;;;;;;;;;;;;;;;6.08;74.52;102328.44;5093622;28;19920;-69
2021/03/18 03:57:26;;;;;;;;;;;;;;;6.01;74.27;102337.84;5093029;28;19927;-73
2021/03/18 03:59:55;;;;;;;;;;;;;;;5.75;75.38;102340.03;5059124;28;19920;-66
2021/03/18 04:02:22;;;;;;;;;;;;;;;5.71;75.70;102335.31;5093723;28;19924;-66
2021/03/18 04:04:49;;;;;;;;;;;;;;;5.94;75.03;102324.34;5075556;28;19920;-67
2021/03/18 04:07:23;;;;;;;;;;;;;;;5.57;74.96;102325.72;5093484;28;19927;-72
2021/03/18 04:09:58;;;;;;;;;;;;;;;5.60;75.44;102327.97;5074845;28;19920;-65
2021/03/18 04:12:26;;;;;;;;;;;;;;;5.70;75.29;102325.47;5093456;28;19927;-69
2021/03/18 04:14:55;;;;;;;;;;;;;;;5.67;75.18;102313.09;5075653;28;19927;-69
2021/03/18 04:17:22;;;;;;;;;;;;;;;5.87;74.44;102325.53;5075164;28;19931;-68
2021/03/18 04:19:49;;;;;;;;;;;;;;;5.87;73.79;102320.06;5058186;28;19927;-66
2021/03/18 04:22:17;;;;;;;;;;;;;;;5.95;73.89;102322.41;5058218;28;19920;-64
2021/03/18 04:24:44;;;;;;;;;;;;;;;5.70;74.64;102322.72;5075397;28;19920;-65
2021/03/18 04:27:11;;;;;;;;;;;;;;;5.82;74.30;102318.06;5093583;28;19920;-69
2021/03/18 04:29:38;;;;;;;;;;;;;;;5.95;73.66;102326.00;5077435;28;19927;-68
2021/03/18 04:32:05;;;;;;;;;;;;;;;6.08;72.91;102320.25;5096666;28;20361;-68
2021/03/18 04:34:48;;;;;;;;;;;;;;;5.91;73.34;102311.13;5064174;28;19927;-70
2021/03/18 04:37:15;;;;;;;;;;;;;;;5.92;73.65;102315.53;5079516;28;19920;-66
2021/03/18 04:39:42;;;;;;;;;;;;;;;6.02;72.74;102306.69;5062379;28;19924;-65
2021/03/18 04:42:09;;;;;;;;;;;;;;;5.87;73.88;102293.56;5079443;28;20293;-65
2021/03/18 04:44:36;;;;;;;;;;;;;;;5.93;73.73;102289.03;5061697;28;19927;-67
2021/03/18 04:47:03;;;;;;;;;;;;;;;5.91;73.23;102296.66;5063079;28;19927;-67
2021/03/18 04:49:30;;;;;;;;;;;;;;;5.70;74.11;102298.13;5097341;28;19927;-67
2021/03/18 04:51:57;;;;;;;;;;;;;;;5.68;74.19;102294.81;5096099;28;19920;-64
2021/03/18 04:54:24;;;;;;;;;;;;;;;5.75;74.20;102314.63;5096540;28;19920;-68
2021/03/18 04:56:50;;;;;;;;;;;;;;;5.83;74.00;102300.59;5079159;28;19942;-65
2021/03/18 04:59:18;;;;;;;;;;;;;;;5.74;74.78;102294.66;5078901;28;19942;-64
2021/03/18 05:01:45;;;;;;;;;;;;;;;5.57;74.60;102287.44;5078750;28;19942;-67
2021/03/18 05:04:12;;;;;;;;;;;;;;;5.71;74.64;102289.69;5078492;28;19947;-65
2021/03/18 05:06:39;;;;;;;;;;;;;;;5.74;74.43;102300.13;5078188;28;19920;-73
2021/03/18 05:09:06;;;;;;;;;;;;;;;6.08;74.09;102295.63;5096374;28;19920;-66
2021/03/18 05:11:32;;;;;;;;;;;;;;;6.12;73.40;102291.28;5046560;28;19931;-72
2021/03/18 05:13:59;;;;;;;;;;;;;;;6.42;71.93;102304.69;5079245;28;19994;-70
2021/03/18 05:16:26;;;;;;;;;;;;;;;5.79;73.65;102302.09;5097072;28;19920;-77
2021/03/18 05:23:11;;;;;;;;;;;;;;;5.49;75.30;102296.84;5096562;28;19923;-67
2021/03/18 05:25:39;;;;;;;;;;;;;;;5.54;75.15;102296.94;5096813;28;19920;-69
2021/03/18 05:28:06;;;;;;;;;;;;;;;5.47;75.73;102296.25;5079154;28;19920;-73
2021/03/18 05:30:33;;;;;;;;;;;;;;;5.58;75.46;102294.56;5078594;28;19924;-70
2021/03/18 05:33:00;;;;;;;;;;;;;;;5.62;75.30;102309.41;5078710;28;20367;-71
2021/03/18 05:35:37;;;;;;;;;;;;;;;5.83;75.20;102299.75;5079020;28;19920;-74
2021/03/18 05:38:04;;;;;;;;;;;;;;;5.84;74.84;102304.16;5096596;28;19927;-75
2021/03/18 05:40:32;;;;;;;;;;;;;;;5.55;75.59;102303.25;5078081;28;20401;-64
2021/03/18 05:42:59;;;;;;;;;;;;;;;5.43;76.18;102314.22;5078221;28;19943;-64
2021/03/18 05:45:26;;;;;;;;;;;;;;;5.38;76.58;102311.38;5077726;28;20267;-67
2021/03/18 05:47:56;;;;;;;;;;;;;;;5.50;76.41;102311.34;5095632;28;19920;-69
2021/03/18 05:50:26;;;;;;;;;;;;;;;5.35;76.93;102305.56;5095888;28;19927;-67
2021/03/18 05:52:54;;;;;;;;;;;;;;;5.60;76.60;102300.63;5077687;28;19920;-64
2021/03/18 05:55:22;;;;;;;;;;;;;;;5.75;76.25;102314.63;5077681;28;19927;-65
2021/03/18 05:57:49;;;;;;;;;;;;;;;5.51;77.06;102310.28;5095744;28;19927;-67
2021/03/18 06:00:17;;;;;;;;;;;;;;;5.35;77.79;102308.31;5095743;28;19927;-71
2021/03/18 06:02:49;;;;;;;;;;;;;;;5.57;77.31;102307.44;5096167;28;19920;-66
2021/03/18 06:05:17;;;;;;;;;;;;;;;5.47;77.77;102303.66;5095416;28;19927;-69
2021/03/18 06:07:44;;;;;;;;;;;;;;;5.42;78.13;102304.34;5096672;28;19927;-66
2021/03/18 06:10:13;;;;;;;;;;;;;;;5.51;77.65;102289.25;5097198;28;19920;-64
2021/03/18 06:12:43;;;;;;;;;;;;;;;5.40;77.91;102287.41;5078114;28;19920;-69
2021/03/18 06:15:11;;;;;;;;;;;;;;;5.38;77.77;102283.22;5096013;28;20366;-65
2021/03/18 06:17:37;;;;;;;;;;;;;;;5.25;78.43;102300.69;5078678;28;19931;-65
2021/03/18 06:20:06;;;;;;;;;;;;;;;5.14;79.00;102295.25;5095542;28;19920;-71
2021/03/18 06:22:37;;;;;;;;;;;;;;;5.24;78.54;102281.81;5077411;28;19923;-69
2021/03/18 06:25:04;;;;;;;;;;;;;;;5.08;79.78;102275.19;5076739;28;19920;-67
2021/03/18 06:27:31;;;;;;;;;;;;;;;5.30;78.88;102270.75;5077065;28;19928;-66
2021/03/18 06:29:59;;;;;;;;;;;;;;;5.26;78.88;102282.41;5077322;28;19920;-72
2021/03/18 06:32:25;;;;;;;;;;;;;;;5.17;78.62;102278.38;5094917;28;20374;-70
2021/03/18 06:34:56;;;;;;;;;;;;;;;5.04;79.63;102274.00;5095113;28;19935;-67
2021/03/18 06:37:30;;;;;;;;;;;;;;;5.05;79.32;102281.16;5077430;28;20259;-69
2021/03/18 06:40:08;;;;;;;;;;;;;;;5.09;78.64;102285.03;5095054;28;19920;-75
2021/03/18 06:42:36;;;;;;;;;;;;;;;5.16;78.87;102293.94;5094424;28;19927;-65
2021/03/18 06:45:10;;;;;;;;;;;;;;;5.37;77.58;102292.50;5059604;28;19924;-65
2021/03/18 06:47:50;;;;;;;;;;;;;;;5.21;78.13;102293.25;5094261;28;19927;-65
2021/03/18 06:50:19;;;;;;;;;;;;;;;5.33;77.75;102288.59;5076889;28;19920;-71
2021/03/18 06:52:46;;;;;;;;;;;;;;;5.21;77.65;102302.25;5093256;28;19920;-70
2021/03/18 06:55:13;;;;;;;;;;;;;;;5.19;78.01;102298.09;5094637;28;19931;-67
2021/03/18 06:57:40;;;;;;;;;;;;;;;5.26;77.84;102296.91;5076804;28;19990;-73
2021/03/18 07:00:09;;;;;;;;;;;;;;;5.54;77.28;102294.22;5094302;28;19946;-72
2021/03/18 07:07:05;;;;;;;;;;;;;;;5.87;75.67;102284.53;5090235;28;19947;-65
2021/03/18 07:09:32;;;;;;;;;;;;;;;5.86;75.49;102280.16;5056202;28;20406;-70
2021/03/18 07:12:00;;;;;;;;;;;;;;;5.71;75.66;102277.91;5074129;28;19921;-70
2021/03/18 07:14:37;;;;;;;;;;;;;;;5.75;75.42;102270.88;5056606;28;19920;-68
2021/03/18 07:17:05;;;;;;;;;;;;;;;5.68;75.67;102278.41;5056241;28;19927;-68
2021/03/18 07:23:51;;;;;;;;;;;;;;;5.61;76.91;102277.72;5073634;28;19931;-64
2021/03/18 07:26:18;;;;;;;;;;;;;;;5.62;76.75;102268.41;5055874;28;19920;-65
2021/03/18 07:28:49;;;;;;;;;;;;;;;5.78;76.31;102272.28;5073848;28;19920;-69
2021/03/18 07:31:17;;;;;;;;;;;;;;;5.84;76.06;102258.50;5073306;28;19920;-66
2021/03/18 07:33:46;;;;;;;;;;;;;;;5.71;76.44;102265.06;5056126;28;20294;-69
2021/03/18 07:36:13;;;;;;;;;;;;;;;5.94;75.64;102260.59;5055054;28;19924;-66
2021/03/18 07:38:40;;;;;;;;;;;;;;;6.06;74.53;102262.22;5072586;28;20375;-65
2021/03/18 07:41:16;;;;;;;;;;;;;;;5.79;75.49;102252.09;5073176;28;19921;-68
2021/03/18 07:43:44;;;;;;;;;;;;;;;5.77;76.56;102246.03;5055546;28;19924;-64
2021/03/18 07:46:17;;;;;;;;;;;;;;;5.70;76.57;102240.72;5072827;28;19927;-65
2021/03/18 07:48:53;;;;;;;;;;;;;;;5.78;76.40;102236.75;5055521;28;20279;-66
2021/03/18 07:51:26;;;;;;;;;;;;;;;5.92;76.35;102236.25;5056713;28;19921;-66
2021/03/18 07:53:54;;;;;;;;;;;;;;;6.03;74.92;102240.81;5055292;28;19924;-64
2021/03/18 07:56:22;;;;;;;;;;;;;;;6.05;75.95;102237.84;5073389;28;20283;-62
2021/03/18 07:58:50;;;;;;;;;;;;;;;5.85;75.70;102235.56;5055590;28;20387;-62
2021/03/18 08:01:30;;;;;;;;;;;;;;;5.84;76.15;102235.81;5056032;28;19927;-63
2021/03/18 08:03:58;;;;;;;;;;;;;;;5.91;75.29;102248.22;5055307;28;19920;-65
2021/03/18 08:06:40;;;;;;;;;;;;;;;5.83;74.31;102237.72;5072782;28;19921;-68
2021/03/18 08:09:14;;;;;;;;;;;;;;;6.15;73.34;102238.00;5071392;28;19927;-61
2021/03/18 08:11:43;;;;;;;;;;;;;;;6.29;72.93;102236.63;5092820;28;19920;-60
2021/03/18 08:14:11;;;;;;;;;;;;;;;6.13;74.15;102240.16;5075032;28;20343;-63
2021/03/18 08:16:38;;;;;;;;;;;;;;;6.02;74.68;102246.50;5074993;28;19924;-63
2021/03/18 08:19:11;;;;;;;;;;;;;;;5.88;73.95;102254.19;5093263;28;19920;-66
2021/03/18 08:21:46;;;;;;;;;;;;;;;5.98;74.33;102259.03;5092734;28;19920;-64
2021/03/18 08:24:13;;;;;;;;;;;;;;;6.00;72.94;102246.75;5074697;28;19924;-65
2021/03/18 08:26:59;;;;;;;;;;;;;;;6.08;72.87;102237.34;5075140;28;20278;-66
2021/03/18 08:29:37;;;;;;;;;;;;;;;6.54;72.49;102246.06;5092033;28;19920;-63
2021/03/18 08:32:06;;;;;;;;;;;;;;;6.28;72.19;102252.19;5092308;28;19928;-65
2021/03/18 08:34:55;;;;;;;;;;;;;;;6.23;73.68;102245.81;5092182;28;19920;-63
2021/03/18 08:37:41;;;;;;;;;;;;;;;6.34;73.29;102248.47;5092386;28;19920;-62
2021/03/18 08:40:29;;;;;;;;;;;;;;;6.42;73.28;102247.22;5092088;28;19920;-62
2021/03/18 08:43:00;;;;;;;;;;;;;;;6.32;72.08;102252.53;5092439;28;19920;-66
2021/03/18 08:45:28;;;;;;;;;;;;;;;6.40;72.71;102239.25;5091783;28;19920;-62
2021/03/18 08:47:56;;;;;;;;;;;;;;;6.34;72.19;102251.22;5074465;28;19920;-63
2021/03/18 08:50:25;;;;;;;;;;;;;;;5.99;74.06;102228.72;5059152;28;19920;-64
2021/03/18 08:52:53;;;;;;;;;;;;;;;6.21;73.63;102220.59;5092627;28;19920;-65
2021/03/18 08:55:49;;;;;;;;;;;;;;;6.17;72.73;102231.19;5057770;28;19919;-64
2021/03/18 08:58:16;;;;;;;;;;;;;;;6.35;73.13;102224.66;5030209;28;19921;-64
2021/03/18 09:00:43;;;;;;;;;;;;;;;6.62;72.76;102218.28;5014381;28;19928;-66
2021/03/18 09:03:14;;;;;;;;;;;;;;;6.52;70.39;102228.25;5030124;28;19944;-63
2021/03/18 09:05:54;;;;;;;;;;;;;;;6.70;69.68;102217.00;5030502;28;19933;-64
2021/03/18 09:08:23;;;;;;;;;;;;;;;6.65;69.48;102230.63;5029926;28;19921;-66
2021/03/18 09:10:50;;;;;;;;;;;;;;;6.61;70.74;102230.28;5030036;28;19921;-64
2021/03/18 09:13:23;;;;;;;;;;;;;;;6.73;69.46;102232.94;5029838;28;19921;-69
2021/03/18 09:15:53;;;;;;;;;;;;;;;6.63;69.51;102238.25;5032854;28;20394;-65
2021/03/18 09:18:24;;;;;;;;;;;;;;;6.42;69.92;102230.81;5034217;28;20264;-67
2021/03/18 09:20:58;;;;;;;;;;;;;;;6.31;70.70;102227.06;5033729;28;19961;-67
2021/03/18 09:23:26;;;;;;;;;;;;;;;6.20;70.74;102228.00;5033046;28;19943;-66
2021/03/18 09:25:56;;;;;;;;;;;;;;;6.30;70.29;102217.22;5017572;28;19932;-65
2021/03/18 09:28:23;;;;;;;;;;;;;;;6.28;70.97;102219.38;5033590;28;19925;-66
2021/03/18 09:30:51;;;;;;;;;;;;;;;6.55;69.92;102203.09;5016352;28;19921;-63
2021/03/18 09:33:22;;;;;;;;;;;;;;;7.00;69.39;102211.13;5032648;28;20021;-65
2021/03/18 09:35:50;;;;;;;;;;;;;;;6.63;69.33;102214.47;5092820;28;19927;-69
2021/03/18 09:38:22;;;;;;;;;;;;;;;6.47;68.66;102217.19;5062205;28;19996;-68
2021/03/18 09:40:50;;;;;;;;;;;;;;;6.42;69.71;102203.44;5061181;28;19919;-65
2021/03/18 09:43:17;;;;;;;;;;;;;;;6.78;69.24;102203.72;5078451;28;19927;-66
2021/03/18 09:45:56;;;;;;;;;;;;;;;6.83;68.45;102194.75;5078173;28;19920;-61
2021/03/18 09:48:24;;;;;;;;;;;;;;;6.76;68.57;102192.19;5095701;28;20359;-63
2021/03/18 09:50:53;;;;;;;;;;;;;;;6.96;68.20;102199.06;5094849;28;19920;-63
2021/03/18 09:53:20;;;;;;;;;;;;;;;6.98;68.01;102191.38;5095251;28;19920;-62
2021/03/18 09:55:47;;;;;;;;;;;;;;;7.15;66.98;102187.50;5095640;28;19927;-63
2021/03/18 09:58:15;;;;;;;;;;;;;;;6.99;68.21;102184.84;5095794;28;19924;-66
2021/03/18 10:00:42;;;;;;;;;;;;;;;7.20;67.74;102178.53;5095371;28;19924;-65
2021/03/18 10:03:09;;;;;;;;;;;;;;;7.33;67.42;102169.91;5094954;28;19927;-66
2021/03/18 10:05:36;;;;;;;;;;;;;;;7.33;67.19;102178.97;5094902;28;19935;-67
2021/03/18 10:08:03;;;;;;;;;;;;;;;7.18;67.92;102173.31;5076275;28;19924;-61
2021/03/18 10:10:31;;;;;;;;;;;;;;;6.99;68.45;102174.69;5095013;28;19943;-62
2021/03/18 10:13:00;;;;;;;;;;;;;;;7.15;68.84;102162.03;5095208;28;19927;-65
2021/03/18 10:15:27;;;;;;;;;;;;;;;7.12;68.22;102165.25;5095003;28;19920;-63
2021/03/18 10:17:54;;;;;;;;;;;;;;;7.18;68.02;102154.13;5077471;28;19920;-66
2021/03/18 10:20:26;;;;;;;;;;;;;;;7.43;66.83;102151.66;5076897;28;19920;-63
2021/03/18 10:23:06;;;;;;;;;;;;;;;6.87;68.11;102163.03;5095532;28;20290;-63
2021/03/18 10:25:35;;;;;;;;;;;;;;;6.82;68.71;102152.00;5077339;28;19919;-61
2021/03/18 10:28:09;;;;;;;;;;;;;;;6.95;68.18;102146.16;5093928;28;19920;-63
2021/03/18 10:30:40;;;;;;;;;;;;;;;7.06;68.05;102161.63;5074673;28;19927;-73
2021/03/18 10:33:15;;;;;;;;;;;;;;;6.77;68.61;102144.56;5095185;28;19920;-79
2021/03/18 10:35:43;;;;;;;;;;;;;;;6.91;67.98;102147.75;5094141;28;19924;-67
2021/03/18 10:38:11;;;;;;;;;;;;;;;7.33;67.12;102137.03;5077091;28;19940;-65
2021/03/18 10:40:47;;;;;;;;;;;;;;;7.29;66.34;102144.09;5095974;28;20374;-72
2021/03/18 10:43:18;;;;;;;;;;;;;;;6.92;66.97;102135.72;5094443;28;20359;-63
2021/03/18 10:45:45;;;;;;;;;;;;;;;6.63;68.37;102140.53;5076860;28;19942;-64
2021/03/18 10:48:17;;;;;;;;;;;;;;;6.94;68.44;102138.22;5076506;28;19920;-61
2021/03/18 10:50:45;;;;;;;;;;;;;;;6.91;67.73;102141.44;5093604;28;19928;-69
2021/03/18 10:53:12;;;;;;;;;;;;;;;6.78;69.00;102138.00;5094449;28;19920;-63
2021/03/18 10:55:50;;;;;;;;;;;;;;;6.89;68.30;102138.94;5091916;28;19920;-74
2021/03/18 10:58:18;;;;;;;;;;;;;;;6.92;67.99;102135.72;5077140;28;20381;-65
2021/03/18 11:00:45;;;;;;;;;;;;;;;7.02;67.70;102124.06;5075028;28;19927;-68
2021/03/18 11:03:13;;;;;;;;;;;;;;;7.01;67.31;102122.41;5088920;28;20401;-66
2021/03/18 11:05:45;;;;;;;;;;;;;;;6.97;67.43;102119.34;5095225;28;19920;-70
2021/03/18 11:08:13;;;;;;;;;;;;;;;6.96;67.59;102122.34;5078299;28;20347;-69
2021/03/18 11:10:43;;;;;;;;;;;;;;;6.93;67.60;102139.28;5095705;28;19927;-72
2021/03/18 11:13:13;;;;;;;;;;;;;;;7.25;67.02;102121.88;5077685;28;19927;-70
2021/03/18 11:15:43;;;;;;;;;;;;;;;7.39;66.87;102120.34;5062178;28;20366;-68
2021/03/18 11:18:10;;;;;;;;;;;;;;;7.54;66.38;102122.44;5112008;28;19920;-65
2021/03/18 11:20:38;;;;;;;;;;;;;;;7.75;65.02;102110.59;5094758;28;19931;-65
2021/03/18 11:23:05;;;;;;;;;;;;;;;7.80;65.11;102111.47;5042846;28;20321;-65
2021/03/18 11:25:32;;;;;;;;;;;;;;;7.59;65.34;102103.28;5075621;28;19927;-64
2021/03/18 11:28:17;;;;;;;;;;;;;;;7.92;65.06;102098.38;5093588;28;20303;-63
2021/03/18 11:30:44;;;;;;;;;;;;;;;8.04;65.00;102098.19;5093351;28;19924;-67
2021/03/18 11:33:16;;;;;;;;;;;;;;;7.95;65.46;102095.13;5093843;28;19924;-68
2021/03/18 11:35:44;;;;;;;;;;;;;;;7.90;66.17;102102.47;5059496;28;20354;-63
2021/03/18 11:38:22;;;;;;;;;;;;;;;7.49;68.53;102098.56;5076400;28;19920;-60
2021/03/18 11:40:49;;;;;;;;;;;;;;;7.26;70.65;102123.53;5093352;28;19920;-67
2021/03/18 11:43:16;;;;;;;;;;;;;;;7.17;73.30;102113.25;5073038;28;19920;-63
2021/03/18 11:45:56;;;;;;;;;;;;;;;6.79;74.81;102117.75;5091097;28;20389;-68
2021/03/18 11:48:23;;;;;;;;;;;;;;;6.80;76.27;102107.63;5091922;28;19920;-65
2021/03/18 11:50:50;;;;;;;;;;;;;;;6.49;75.80;102100.09;5093759;28;19920;-73
2021/03/18 11:53:40;;;;;;;;;;;;;;;6.27;78.11;102097.31;5059155;28;19920;-62
2021/03/18 11:56:13;;;;;;;;;;;;;;;6.63;77.34;102102.22;5087586;28;19920;-61
2021/03/18 11:58:40;;;;;;;;;;;;;;;6.99;77.57;102084.28;5092410;28;19920;-62
2021/03/18 12:01:14;;;;;;;;;;;;;;;6.57;78.83;102081.31;5075667;28;19921;-64
2021/03/18 12:03:42;;;;;;;;;;;;;;;7.05;78.13;102072.31;5092298;28;19931;-63
2021/03/18 12:06:12;;;;;;;;;;;;;;;7.49;76.08;102067.56;5091640;28;19919;-67
2021/03/18 12:09:05;;;;;;;;;;;;;;;7.29;76.08;102072.84;5078597;28;19924;-64
2021/03/18 12:11:38;;;;;;;;;;;;;;;6.83;76.36;102068.78;5074934;28;19919;-65
2021/03/18 12:14:14;;;;;;;;;;;;;;;7.15;76.33;102072.44;5074675;28;19924;-71
2021/03/18 12:16:44;;;;;;;;;;;;;;;7.30;76.22;102069.03;5075946;28;19931;-68
2021/03/18 12:19:11;;;;;;;;;;;;;;;7.35;74.88;102072.66;5074952;28;20247;-65
2021/03/18 12:21:48;;;;;;;;;;;;;;;7.01;76.04;102087.59;5093052;28;19920;-62
2021/03/18 12:24:33;;;;;;;;;;;;;;;7.01;76.00;102084.88;5093396;28;19943;-66
2021/03/18 12:26:59;;;;;;;;;;;;;;;6.92;76.37;102063.69;5075779;28;19934;-61
2021/03/18 12:29:27;;;;;;;;;;;;;;;6.95;76.08;102060.41;5075685;28;20370;-65
2021/03/18 12:31:56;;;;;;;;;;;;;;;6.95;76.31;102054.94;5074138;28;19920;-66
2021/03/18 12:34:30;;;;;;;;;;;;;;;7.05;76.73;102050.41;5091881;28;19920;-66
2021/03/18 12:36:57;;;;;;;;;;;;;;;7.49;75.95;102049.22;5092175;28;19927;-62
2021/03/18 12:39:27;;;;;;;;;;;;;;;7.82;74.40;102039.88;5075472;28;20030;-64
2021/03/18 12:42:14;;;;;;;;;;;;;;;7.14;73.48;102040.66;5050171;28;19927;-66
2021/03/18 12:44:41;;;;;;;;;;;;;;;7.07;73.53;102040.03;5031451;28;20393;-61
2021/03/18 12:47:08;;;;;;;;;;;;;;;6.98;74.19;102035.25;5085128;28;19931;-67
2021/03/18 12:49:35;;;;;;;;;;;;;;;7.21;73.67;102044.00;5074596;28;20354;-69
2021/03/18 12:52:03;;;;;;;;;;;;;;;7.33;73.43;102027.38;5096180;28;19927;-67
2021/03/18 12:54:36;;;;;;;;;;;;;;;7.66;72.49;102022.47;5096152;28;19920;-63
2021/03/18 12:57:08;;;;;;;;;;;;;;;7.61;72.24;102035.31;5062883;28;19931;-66
2021/03/18 12:59:41;;;;;;;;;;;;;;;7.27;71.08;102017.47;5096284;28;19920;-65
2021/03/18 13:02:11;;;;;;;;;;;;;;;7.25;72.37;102016.91;5062127;28;20286;-66
2021/03/18 13:04:44;;;;;;;;;;;;;;;7.54;72.12;102002.66;5096875;28;20291;-70
2021/03/18 13:07:11;;;;;;;;;;;;;;;7.91;70.91;102016.34;5096485;28;20262;-72
2021/03/18 13:09:38;;;;;;;;;;;;;;;7.71;71.20;101999.75;5095847;28;19920;-67
2021/03/18 13:12:05;;;;;;;;;;;;;;;8.07;70.37;101992.59;5096023;28;19919;-65
2021/03/18 13:14:32;;;;;;;;;;;;;;;7.85;70.17;101996.28;5089718;28;20397;-69
2021/03/18 13:16:59;;;;;;;;;;;;;;;7.91;70.33;101989.72;5077126;28;19920;-68
2021/03/18 13:19:32;;;;;;;;;;;;;;;8.05;69.38;101994.75;5096510;28;19927;-65
2021/03/18 13:22:01;;;;;;;;;;;;;;;8.15;69.33;101990.16;5096012;28;19920;-70
2021/03/18 13:24:38;;;;;;;;;;;;;;;7.97;69.44;101983.19;5095777;28;19924;-71